»·PEaware :: N48MS KSBP-KMYF

N48MS :: KSBP-KMYF

FLIGHT INFORMATION

Flight Status: Arrived
Operator: Privately registered:
United States
More flights under this callsign
Pilot: Michael S. (1552)
Aircraft: CESSNA 525 CITATION JET CJ1
(C525)
More flights by this aircraft type
Origin: KSBP San Luis Co Regl
United States
Destination: KMYF Montgomery
United States
More flights between these airports :: More routes between these airports
Route: +RZS VTU V208 SXC V208 HUBRD CARDI MZB
File this flight plan on PilotEdge
Remarks: / V /
Altitude:
(Current/Filed)
25,000ft
Speed:
(Current/Filed)
340kts
Departed: 26-Jan-13 06:05 PM
Arrived: 26-Jan-13 07:13 PM
Distance/Time
Traveled:
227nm/1:08
Distance/Time
To Go:
Arrived

Flight Plot

Page will automatically refresh every two minutes.

Flight plan parsing failed; only flown route is shown


Map Options




Map Legend


Flown Route
Filed Route
Departure Airport
Arrival Airport
Navaid (VOR, NDB)
Fix

Horizontal Profiles

Position Reports

Time Latitude Longitude Heading Altitude Ground
Speed
26-Jan-13 17:44 35.238278 -120.639177 84 214ft 0kts
26-Jan-13 17:45 35.238278 -120.639176 84 214ft 0kts
26-Jan-13 17:46 35.238278 -120.639175 84 214ft 0kts
26-Jan-13 17:47 35.238278 -120.639175 84 214ft 0kts
26-Jan-13 17:48 35.238279 -120.639174 84 214ft 0kts
26-Jan-13 17:49 35.238279 -120.639173 84 214ft 0kts
26-Jan-13 17:50 35.238279 -120.639172 84 214ft 0kts
26-Jan-13 17:51 35.238279 -120.639171 84 214ft 0kts
26-Jan-13 17:52 35.238279 -120.639171 84 214ft 0kts
26-Jan-13 17:53 35.238279 -120.639170 84 214ft 0kts
26-Jan-13 17:54 35.238279 -120.639169 84 214ft 0kts
26-Jan-13 17:55 35.238279 -120.639168 84 214ft 0kts
26-Jan-13 17:56 35.238279 -120.639167 84 214ft 0kts
26-Jan-13 17:57 35.238279 -120.639167 84 214ft 0kts
26-Jan-13 17:58 35.238279 -120.639166 84 214ft 0kts
26-Jan-13 17:59 35.238279 -120.639165 84 214ft 0kts
26-Jan-13 18:00 35.238279 -120.639164 84 214ft 0kts
26-Jan-13 18:01 35.238303 -120.638838 84 214ft 7kts
26-Jan-13 18:02 35.236546 -120.637732 124 214ft 21kts
26-Jan-13 18:03 35.233803 -120.632646 122 214ft 15kts
26-Jan-13 18:04 35.233301 -120.632578 217 214ft 0kts
26-Jan-13 18:05 35.235400 -120.637659 300 214ft 81kts
26-Jan-13 18:06 35.253256 -120.666934 312 2044ft 111kts
26-Jan-13 18:07 35.282271 -120.706784 312 4671ft 185kts
26-Jan-13 18:08 35.323970 -120.764528 304 4979ft 244kts
26-Jan-13 18:09 35.303067 -120.829961 196 6708ft 243kts
26-Jan-13 18:10 35.245875 -120.818737 164 8008ft 277kts
26-Jan-13 18:11 35.170823 -120.790613 163 8144ft 281kts
26-Jan-13 18:12 35.102330 -120.745273 124 9687ft 290kts
26-Jan-13 18:13 35.063015 -120.664607 118 10557ft 258kts
26-Jan-13 18:14 35.029916 -120.601404 122 11075ft 276kts
26-Jan-13 18:15 34.982591 -120.521722 125 11089ft 295kts
26-Jan-13 18:16 34.933045 -120.441785 125 11085ft 296kts
26-Jan-13 18:17 34.883186 -120.362073 125 11086ft 296kts
26-Jan-13 18:18 34.833220 -120.282440 125 11086ft 296kts
26-Jan-13 18:19 34.783026 -120.202627 125 11071ft 296kts
26-Jan-13 18:20 34.732322 -120.122209 125 11727ft 305kts
26-Jan-13 18:21 34.680706 -120.040642 124 13911ft 306kts
26-Jan-13 18:22 34.627713 -119.956914 124 15651ft 317kts
26-Jan-13 18:23 34.573643 -119.871778 123 17269ft 321kts
26-Jan-13 18:24 34.518899 -119.785739 123 18704ft 324kts
26-Jan-13 18:25 34.466980 -119.694572 118 19606ft 333kts
26-Jan-13 18:26 34.416354 -119.600079 118 20447ft 336kts
26-Jan-13 18:27 34.365087 -119.505332 118 21246ft 337kts
26-Jan-13 18:28 34.313388 -119.410465 118 21923ft 339kts
26-Jan-13 18:29 34.261046 -119.314789 118 22524ft 341kts
26-Jan-13 18:30 34.208453 -119.218959 118 22988ft 345kts
26-Jan-13 18:31 34.157486 -119.126577 118 23000ft 326kts
26-Jan-13 18:32 34.090194 -119.054157 157 23004ft 344kts
26-Jan-13 18:33 33.994770 -119.035033 171 22996ft 354kts
26-Jan-13 18:34 33.896343 -119.025836 172 22994ft 355kts
26-Jan-13 18:35 33.798431 -119.013682 157 22992ft 349kts
26-Jan-13 18:36 33.729485 -118.939278 121 23003ft 332kts
26-Jan-13 18:37 33.673248 -118.850846 121 23003ft 332kts
26-Jan-13 18:38 33.615368 -118.764020 123 23016ft 334kts
26-Jan-13 18:39 33.556009 -118.678015 123 23021ft 335kts
26-Jan-13 18:40 33.499438 -118.597315 123 22095ft 310kts
26-Jan-13 18:41 33.444202 -118.518334 124 20598ft 309kts
26-Jan-13 18:42 33.388825 -118.439439 124 19096ft 311kts
26-Jan-13 18:43 33.360635 -118.345125 91 17610ft 306kts
26-Jan-13 18:45 33.351805 -118.242927 92 16107ft 305kts
26-Jan-13 18:46 33.339190 -118.143767 95 14608ft 304kts
26-Jan-13 18:47 33.325979 -118.045490 95 13994ft 299kts
26-Jan-13 18:48 33.312776 -117.947176 95 13990ft 300kts
26-Jan-13 18:49 33.299505 -117.848509 95 13989ft 300kts
26-Jan-13 18:50 33.286167 -117.750126 95 13987ft 300kts
26-Jan-13 18:51 33.271511 -117.651721 96 13988ft 300kts
26-Jan-13 18:52 33.243739 -117.558182 123 14008ft 307kts
26-Jan-13 18:53 33.186813 -117.482707 134 14005ft 305kts
26-Jan-13 18:54 33.123703 -117.415634 148 14017ft 305kts
26-Jan-13 18:55 33.047617 -117.370888 156 13979ft 306kts
26-Jan-13 18:56 32.972511 -117.330303 155 12638ft 285kts
26-Jan-13 18:57 32.902246 -117.291785 155 11139ft 270kts
26-Jan-13 18:58 32.839628 -117.247533 121 9645ft 262kts
26-Jan-13 18:59 32.825631 -117.164479 92 8184ft 254kts
26-Jan-13 19:00 32.822482 -117.081222 92 6686ft 251kts
26-Jan-13 19:01 32.819636 -116.999137 92 5199ft 243kts
26-Jan-13 19:01 32.817283 -116.935334 94 5003ft 233kts
26-Jan-13 19:03 32.791457 -116.847664 112 4454ft 248kts
26-Jan-13 19:04 32.763782 -116.773170 127 4008ft 242kts
26-Jan-13 19:05 32.708915 -116.774791 236 4010ft 221kts
26-Jan-13 19:06 32.699695 -116.838302 279 3996ft 170kts
26-Jan-13 19:07 32.717206 -116.888812 295 4001ft 172kts
26-Jan-13 19:08 32.738322 -116.941929 294 3963ft 181kts
26-Jan-13 19:08 32.755824 -116.986243 294 3178ft 169kts
26-Jan-13 19:09 32.774809 -117.034543 294 2203ft 151kts
26-Jan-13 19:10 32.789328 -117.071405 294 1671ft 113kts
26-Jan-13 19:11 32.802332 -117.104465 294 1006ft 108kts
26-Jan-13 19:12 32.814611 -117.135555 294 438ft 84kts
26-Jan-13 19:13 32.818057 -117.144653 280 429ft 10kts
26-Jan-13 19:14 32.815683 -117.146183 169 429ft 5kts
26-Jan-13 19:15 32.814262 -117.145150 68 429ft 6kts
26-Jan-13 19:16 32.814802 -117.142030 124 429ft 11kts
26-Jan-13 19:17 32.814035 -117.141164 164 429ft 0kts
26-Jan-13 19:18 32.814034 -117.141164 164 429ft 0kts
26-Jan-13 19:19 32.814034 -117.141164 164 429ft 0kts

Navigation Log

Ident Type
Flight plan parsing failed, navigation log unavailable